Brossard, Canada
Current Conditions -  °F | °C
As of 7:00 AM on Friday 24 Oct 2014 (Local Time) from CYHU Reporting Station
Light Rain Light Rain  
Wind Chill: 41°   Ceiling: 3000
Heat Index: 45°   Visibility: 9mi
Dew Point: 41°   Wind: 7mph
Humidity: 87%   Direction: 340°NNW
Pressure: 29.9"   Gusts: NA
Location:  45.45°N, 73.48°W
Report Text: CYHU 241100Z AUTO 34006KT 9SM -RA OVC030 07/05 A2990 RMK SLP125
Loading
Personal Weather Stations






























Interactive Weather Map
Tropical Storm Tracking
New forecast layout! Learn more

10-Day Weather Forecast

Advertisements
Track Severe Weather on mobile